IBE07MC LEMD-EGLL
Flight info
| Callsign | IBE07MC |
|---|---|
| Flight time | N/A |
| Altitude | 34000 |
| Route | SIE N858 DGO N867 NENEM DCT DIDIG UP87 ROXOG |
| Aircraft | A346/H-SDE2E3FGHIJ3J4J5M1RWXY/LB1D1 |
Departure
| Time | 2026-05-07 09:11 |
|---|---|
| Airport | Adolfo Suárez Madrid–Barajas Airport (LEMD) |
Arrival
| Time | N/A |
|---|---|
| Airport | London Heathrow Airport (EGLL) |
| Time | Latitude | Longitude | Altitude | Speed | Heading |
|---|---|---|---|---|---|
| 2026-05-07 08:38 | 40.49356 | -3.56880 | 1981 ft | 0 kts | 89° |
| 2026-05-07 09:00 | 40.49356 | -3.56897 | 1980 ft | 0 kts | 89° |
| 2026-05-07 09:00 | 40.49356 | -3.56932 | 1983 ft | 0 kts | 89° |
| 2026-05-07 09:00 | 40.49358 | -3.56962 | 1983 ft | 0 kts | 108° |
| 2026-05-07 09:01 | 40.49368 | -3.56979 | 1983 ft | 0 kts | 149° |
| 2026-05-07 09:01 | 40.49387 | -3.56985 | 1982 ft | 0 kts | 183° |
| 2026-05-07 09:03 | 40.49386 | -3.56985 | 1982 ft | 0 kts | 183° |
| 2026-05-07 09:03 | 40.49384 | -3.56985 | 1982 ft | 1 kts | 183° |
| 2026-05-07 09:04 | 40.49378 | -3.56985 | 1982 ft | 1 kts | 183° |
| 2026-05-07 09:04 | 40.49365 | -3.56986 | 1983 ft | 3 kts | 183° |
| 2026-05-07 09:04 | 40.49352 | -3.56987 | 1984 ft | 0 kts | 183° |
| 2026-05-07 09:05 | 40.49351 | -3.56987 | 1984 ft | 0 kts | 186° |
| 2026-05-07 09:06 | 40.49350 | -3.56988 | 1984 ft | 0 kts | 192° |
| 2026-05-07 09:06 | 40.49336 | -3.56996 | 1986 ft | 4 kts | 206° |
| 2026-05-07 09:06 | 40.49318 | -3.57011 | 1989 ft | 2 kts | 217° |
| 2026-05-07 09:06 | 40.49295 | -3.57054 | 1988 ft | 8 kts | 250° |
| 2026-05-07 09:07 | 40.49260 | -3.57106 | 1990 ft | 7 kts | 200° |
| 2026-05-07 09:07 | 40.49204 | -3.57126 | 1992 ft | 8 kts | 214° |
| 2026-05-07 09:07 | 40.49184 | -3.57200 | 1993 ft | 10 kts | 265° |
| 2026-05-07 09:07 | 40.49182 | -3.57295 | 1991 ft | 11 kts | 269° |
| 2026-05-07 09:08 | 40.49185 | -3.57403 | 1995 ft | 12 kts | 286° |
| 2026-05-07 09:08 | 40.49235 | -3.57453 | 1994 ft | 2 kts | 4° |
| 2026-05-07 09:08 | 40.49241 | -3.57453 | 1994 ft | 0 kts | 1° |
| 2026-05-07 09:09 | 40.49242 | -3.57453 | 1992 ft | 0 kts | 1° |
| 2026-05-07 09:10 | 40.49312 | -3.57452 | 1992 ft | 36 kts | 0° |
| 2026-05-07 09:11 | 40.49793 | -3.57454 | 1996 ft | 100 kts | 360° |
| 2026-05-07 09:11 | 40.50673 | -3.57462 | 2003 ft | 153 kts | 360° |
| 2026-05-07 09:11 | 40.51847 | -3.57473 | 2219 ft | 178 kts | 0° |
| 2026-05-07 09:11 | 40.53092 | -3.57498 | 2842 ft | 181 kts | 0° |
| 2026-05-07 09:12 | 40.54357 | -3.57534 | 3507 ft | 184 kts | 1° |
| 2026-05-07 09:12 | 40.55651 | -3.57437 | 4027 ft | 191 kts | 12° |
| 2026-05-07 09:12 | 40.56984 | -3.56983 | 4438 ft | 205 kts | 18° |
| 2026-05-07 09:12 | 40.58401 | -3.56403 | 4839 ft | 222 kts | 19° |
| 2026-05-07 09:13 | 40.59928 | -3.55771 | 5267 ft | 238 kts | 19° |
| 2026-05-07 09:13 | 40.61518 | -3.55110 | 5860 ft | 246 kts | 19° |
| 2026-05-07 09:13 | 40.63161 | -3.54487 | 6721 ft | 246 kts | 14° |
| 2026-05-07 09:13 | 40.64891 | -3.54114 | 7481 ft | 252 kts | 7° |
| 2026-05-07 09:14 | 40.66629 | -3.53931 | 8206 ft | 257 kts | 4° |
| 2026-05-07 09:14 | 40.68444 | -3.53782 | 9012 ft | 260 kts | 4° |
| 2026-05-07 09:14 | 40.70262 | -3.53634 | 9818 ft | 264 kts | 4° |
| 2026-05-07 09:14 | 40.72114 | -3.53479 | 10558 ft | 269 kts | 4° |
| 2026-05-07 09:15 | 40.73991 | -3.53317 | 11350 ft | 272 kts | 2° |
| 2026-05-07 09:15 | 40.75890 | -3.53287 | 12179 ft | 274 kts | 356° |
| 2026-05-07 09:15 | 40.77823 | -3.53521 | 12838 ft | 286 kts | 352° |
| 2026-05-07 09:15 | 40.79852 | -3.53891 | 13335 ft | 303 kts | 351° |
| 2026-05-07 09:16 | 40.81970 | -3.54300 | 13800 ft | 320 kts | 351° |
| 2026-05-07 09:16 | 40.84268 | -3.54739 | 14204 ft | 339 kts | 351° |
| 2026-05-07 09:16 | 40.86631 | -3.55180 | 14590 ft | 356 kts | 351° |
| 2026-05-07 09:16 | 40.89148 | -3.55646 | 14969 ft | 374 kts | 351° |
| 2026-05-07 09:17 | 40.91793 | -3.56132 | 15320 ft | 393 kts | 351° |
| 2026-05-07 09:17 | 40.94547 | -3.56639 | 15770 ft | 406 kts | 351° |
| 2026-05-07 09:17 | 40.97371 | -3.57160 | 16502 ft | 411 kts | 351° |
| 2026-05-07 09:17 | 41.00198 | -3.57681 | 17326 ft | 415 kts | 351° |
| 2026-05-07 09:18 | 41.03075 | -3.58213 | 18097 ft | 419 kts | 351° |
| 2026-05-07 09:18 | 41.05980 | -3.58750 | 18754 ft | 425 kts | 351° |
| 2026-05-07 09:18 | 41.08927 | -3.59297 | 19419 ft | 430 kts | 351° |
| 2026-05-07 09:18 | 41.11904 | -3.59850 | 20089 ft | 434 kts | 351° |
| 2026-05-07 09:19 | 41.14901 | -3.60408 | 20743 ft | 438 kts | 351° |
| 2026-05-07 09:19 | 41.17962 | -3.60696 | 21375 ft | 444 kts | 1° |
| 2026-05-07 09:19 | 41.21042 | -3.60215 | 22015 ft | 449 kts | 12° |
| 2026-05-07 09:19 | 41.24032 | -3.58946 | 22649 ft | 453 kts | 24° |
| 2026-05-07 09:20 | 41.26806 | -3.56926 | 23192 ft | 458 kts | 36° |
| 2026-05-07 09:20 | 41.29345 | -3.54336 | 23751 ft | 462 kts | 39° |
| 2026-05-07 09:20 | 41.31948 | -3.51864 | 24246 ft | 468 kts | 33° |
| 2026-05-07 09:20 | 41.34812 | -3.49885 | 24734 ft | 473 kts | 25° |
| 2026-05-07 09:21 | 41.37803 | -3.48109 | 25248 ft | 478 kts | 24° |
| 2026-05-07 09:21 | 41.40805 | -3.46425 | 25725 ft | 482 kts | 22° |
| 2026-05-07 09:21 | 41.43966 | -3.44695 | 26212 ft | 487 kts | 22° |
| 2026-05-07 09:21 | 41.47063 | -3.43006 | 26672 ft | 491 kts | 22° |
| 2026-05-07 09:22 | 41.50154 | -3.41313 | 27126 ft | 496 kts | 22° |
| 2026-05-07 09:22 | 41.53393 | -3.39531 | 27707 ft | 497 kts | 22° |
| 2026-05-07 09:22 | 41.56531 | -3.37801 | 28527 ft | 493 kts | 22° |
| 2026-05-07 09:22 | 41.59663 | -3.36072 | 29354 ft | 490 kts | 22° |
| 2026-05-07 09:23 | 41.62742 | -3.34371 | 30044 ft | 490 kts | 22° |
| 2026-05-07 09:23 | 41.65855 | -3.32650 | 30592 ft | 490 kts | 22° |
| 2026-05-07 09:23 | 41.68918 | -3.30956 | 31177 ft | 489 kts | 22° |
| 2026-05-07 09:23 | 41.72031 | -3.29231 | 31785 ft | 488 kts | 22° |
| 2026-05-07 09:24 | 41.75136 | -3.27510 | 32388 ft | 487 kts | 22° |
| 2026-05-07 09:24 | 41.78266 | -3.25772 | 32924 ft | 487 kts | 22° |
| 2026-05-07 09:24 | 41.81295 | -3.24088 | 33368 ft | 489 kts | 22° |
| 2026-05-07 09:24 | 41.84421 | -3.22347 | 33788 ft | 492 kts | 22° |
| 2026-05-07 09:25 | 41.87544 | -3.20606 | 33950 ft | 494 kts | 22° |
| 2026-05-07 09:25 | 41.90656 | -3.18870 | 33958 ft | 495 kts | 22° |
| 2026-05-07 09:25 | 41.96956 | -3.15348 | 33964 ft | 495 kts | 22° |
| 2026-05-07 09:26 | 42.03000 | -3.11964 | 33964 ft | 495 kts | 22° |
| 2026-05-07 09:26 | 42.09167 | -3.08502 | 33964 ft | 495 kts | 22° |
| 2026-05-07 09:27 | 42.15609 | -3.04879 | 33947 ft | 495 kts | 22° |
| 2026-05-07 09:28 | 42.24980 | -2.99593 | 33975 ft | 493 kts | 22° |
| 2026-05-07 09:28 | 42.31281 | -2.96030 | 33974 ft | 493 kts | 22° |
| 2026-05-07 09:29 | 42.37492 | -2.92568 | 33982 ft | 493 kts | 19° |
| 2026-05-07 09:29 | 42.44036 | -2.90121 | 33987 ft | 493 kts | 9° |
| 2026-05-07 09:30 | 42.50814 | -2.89259 | 33986 ft | 491 kts | 358° |
| 2026-05-07 09:30 | 42.57545 | -2.89919 | 33987 ft | 490 kts | 351° |
| 2026-05-07 09:31 | 42.64264 | -2.91087 | 33990 ft | 490 kts | 350° |
| 2026-05-07 09:31 | 42.70981 | -2.92250 | 33987 ft | 490 kts | 350° |
| 2026-05-07 09:32 | 42.77696 | -2.93382 | 33995 ft | 490 kts | 351° |
| 2026-05-07 09:32 | 42.84406 | -2.94504 | 33995 ft | 490 kts | 351° |
| 2026-05-07 09:33 | 42.91117 | -2.95623 | 33988 ft | 490 kts | 351° |
| 2026-05-07 09:33 | 42.97801 | -2.96740 | 33989 ft | 490 kts | 351° |
| 2026-05-07 09:34 | 43.04407 | -2.97844 | 34001 ft | 490 kts | 350° |
| 2026-05-07 09:34 | 43.11093 | -2.98967 | 33992 ft | 490 kts | 350° |
| 2026-05-07 09:35 | 43.17809 | -3.00098 | 33999 ft | 490 kts | 350° |
| 2026-05-07 09:35 | 43.24466 | -3.01218 | 33995 ft | 489 kts | 350° |
| 2026-05-07 09:36 | 43.31032 | -3.02329 | 34002 ft | 489 kts | 350° |
| 2026-05-07 09:36 | 43.37713 | -3.03461 | 34007 ft | 489 kts | 350° |
| 2026-05-07 09:37 | 43.44397 | -3.04593 | 34004 ft | 488 kts | 350° |
| 2026-05-07 09:37 | 43.51084 | -3.05732 | 33983 ft | 489 kts | 350° |
| 2026-05-07 09:38 | 43.57769 | -3.06873 | 33988 ft | 489 kts | 350° |
| 2026-05-07 09:38 | 43.64453 | -3.08012 | 33994 ft | 488 kts | 350° |
| 2026-05-07 09:39 | 43.71070 | -3.09145 | 33997 ft | 487 kts | 350° |
| 2026-05-07 09:39 | 43.74384 | -3.09714 | 33997 ft | 487 kts | 350° |